createdAt,value
2023-04-15T20:20:59.344Z,0.0000
2023-04-15T20:21:52.679Z,0.0000
2023-04-15T20:22:55.032Z,25.1538
2023-04-15T20:23:57.647Z,0.0000
2023-04-15T20:25:00.213Z,0.0000
2023-04-15T20:26:02.808Z,0.0000
2023-04-15T20:27:05.356Z,0.0000
2023-04-15T20:28:07.956Z,1.1538
2023-04-15T20:29:10.515Z,5.5385
2023-04-15T20:30:13.101Z,15.6154
2023-04-15T20:31:15.696Z,32.5385
2023-04-15T20:32:18.296Z,34.0769
2023-04-15T20:33:20.816Z,35.0769
2023-04-15T20:34:23.418Z,50.3846
2023-04-15T20:35:25.963Z,45.9231
2023-04-15T20:36:28.567Z,42.9231
2023-04-15T20:37:31.119Z,47.4615
2023-04-15T20:38:33.723Z,42.6923
2023-04-15T20:39:36.282Z,43.0769
2023-04-15T20:40:40.545Z,40.3846
2023-04-15T20:41:41.451Z,40.3846
2023-04-15T20:42:44.034Z,58.2308
2023-04-15T20:43:46.589Z,55.0000
2023-04-15T20:44:49.181Z,52.2308
2023-04-15T20:45:51.750Z,55.6154
2023-04-15T20:46:54.523Z,56.4615
2023-04-15T20:47:56.926Z,58.0000
2023-04-15T20:48:59.502Z,54.8462
2023-04-15T20:50:02.338Z,58.1538
2023-04-15T20:51:04.658Z,54.6154
2023-04-15T20:52:07.228Z,60.1538
2023-04-15T20:53:09.829Z,59.8462
2023-04-15T20:54:12.397Z,64.4615
2023-04-15T20:55:14.991Z,65.3077
2023-04-15T20:56:17.523Z,68.3846
2023-04-15T20:57:20.162Z,85.8462
2023-04-15T20:58:22.675Z,62.6154
2023-04-15T20:59:25.283Z,6.8462
2023-04-15T21:00:27.893Z,0.0000
2023-04-15T21:01:30.441Z,0.0000
2023-04-15T21:02:33.089Z,0.0000
2023-04-15T21:03:35.659Z,0.0000
2023-04-15T21:04:38.167Z,0.0000
2023-04-15T21:05:40.761Z,0.0000
2023-04-15T21:06:43.317Z,0.0000
2023-04-15T21:07:45.984Z,0.0000
2023-04-15T21:08:48.515Z,0.0000
2023-04-15T21:09:51.065Z,0.2308
2023-04-15T21:10:53.619Z,2.0769
2023-04-15T21:12:00.979Z,7.0769
2023-04-15T21:12:59.781Z,0.3846
2023-04-15T21:14:01.389Z,9.9231
2023-04-15T21:15:03.942Z,5.4615
2023-04-15T21:16:07.943Z,10.7692
2023-04-15T21:17:11.223Z,13.5000
2023-04-15T21:18:11.689Z,20.1538
2023-04-15T21:19:14.246Z,25.2308
2023-04-15T21:20:16.858Z,30.3077
2023-04-15T21:21:19.402Z,32.6154
2023-04-15T21:22:22.009Z,35.1538
2023-04-15T21:23:24.550Z,50.8462
2023-04-15T21:24:27.149Z,45.1538
2023-04-15T21:25:29.701Z,42.1538
2023-04-15T21:26:32.324Z,58.0000
2023-04-15T21:27:34.856Z,140.8462
2023-04-15T21:28:37.464Z,107.9231
2023-04-15T21:29:40.015Z,108.3077
2023-04-15T21:30:42.652Z,84.6923
2023-04-15T21:31:45.222Z,135.5385
2023-04-15T21:32:47.822Z,110.1538
2023-04-15T21:33:50.337Z,93.3846
2023-04-15T21:34:53.203Z,90.4615
2023-04-15T21:35:55.474Z,99.5385
2023-04-15T21:36:58.075Z,128.5385
2023-04-15T21:38:00.632Z,152.0000
2023-04-15T21:39:03.323Z,150.8462
2023-04-15T21:40:05.773Z,159.4615
2023-04-15T21:41:08.390Z,109.7692
2023-04-15T21:42:10.945Z,84.1538
2023-04-15T21:43:13.595Z,79.5385
2023-04-15T21:44:16.196Z,77.9231
2023-04-15T21:45:18.701Z,75.4615
2023-04-15T21:46:25.305Z,75.0000
2023-04-15T21:47:23.888Z,75.6154
2023-04-15T21:48:26.444Z,75.6154
2023-04-15T21:49:29.014Z,75.5385
2023-04-15T21:50:31.579Z,70.0000
2023-04-15T21:51:34.170Z,68.2308
2023-04-15T21:52:36.705Z,66.0000
2023-04-15T21:53:39.306Z,62.6923
2023-04-15T21:54:41.862Z,60.9231
2023-04-15T21:55:44.458Z,61.2308
2023-04-15T21:56:47.017Z,57.1538
2023-04-15T21:57:49.624Z,57.7692
2023-04-15T21:58:52.176Z,52.0769
2023-04-15T21:59:54.786Z,49.6923
2023-04-15T22:00:57.427Z,48.8462
2023-04-15T22:02:00.108Z,45.0769
2023-04-15T22:03:02.654Z,42.3846
2023-04-15T22:04:05.167Z,38.0769
2023-04-15T22:05:07.645Z,37.8462
2023-04-15T22:06:10.286Z,37.3077
2023-04-15T22:07:12.806Z,34.1538
2023-04-15T22:08:15.420Z,26.1538
2023-04-15T22:09:18.042Z,17.4615
2023-04-15T22:10:20.897Z,17.6154
2023-04-15T22:11:23.175Z,1.5385
2023-04-15T22:12:25.739Z,0.0000
2023-04-15T22:13:28.288Z,0.0000
2023-04-15T22:14:30.906Z,0.0000
2023-04-15T22:15:33.449Z,0.0000
2023-04-15T22:16:36.118Z,0.0000
2023-04-15T22:17:38.655Z,0.0000
2023-04-15T22:18:41.312Z,0.0000
2023-04-15T22:19:43.759Z,1.9231
2023-04-15T22:20:46.371Z,2.4615
2023-04-15T22:21:48.920Z,20.4615
2023-04-15T22:22:54.413Z,6.2308
2023-04-15T22:24:34.979Z,65.7692
2023-04-15T22:24:57.680Z,353.8462
2023-04-15T22:25:59.247Z,318.1538
2023-04-15T22:27:01.851Z,250.3077
2023-04-15T22:28:04.405Z,220.0769
2023-04-15T22:29:07.249Z,219.3077
2023-04-15T22:30:09.558Z,136.4615
2023-04-15T22:31:12.180Z,132.6154
2023-04-15T22:32:14.719Z,131.7692
2023-04-15T22:33:17.341Z,120.6923
2023-04-15T22:34:19.896Z,120.2308
2023-04-15T22:35:22.493Z,119.7692
2023-04-15T22:36:25.049Z,129.1538
2023-04-15T22:37:27.650Z,120.3077
2023-04-15T22:38:30.192Z,119.2308
2023-04-15T22:39:32.810Z,111.7692
2023-04-15T22:40:35.371Z,102.8462
2023-04-15T22:41:37.966Z,107.6154
2023-04-15T22:42:40.524Z,110.6154
2023-04-15T22:43:43.120Z,113.4615
2023-04-15T22:44:45.684Z,105.5385
2023-04-15T22:45:48.316Z,99.3846
2023-04-15T22:46:50.841Z,89.6154
2023-04-15T22:47:53.462Z,84.6154
2023-04-15T22:48:56.007Z,73.9231
2023-04-15T22:49:58.636Z,65.5385
2023-04-15T22:51:01.161Z,60.0000
2023-04-15T22:52:03.966Z,51.6923
2023-04-15T22:53:06.333Z,48.9231
2023-04-15T22:54:08.923Z,49.0000
2023-04-15T22:55:11.494Z,57.8462
2023-04-15T22:56:14.095Z,53.6923
2023-04-15T22:57:16.649Z,47.0000
2023-04-15T22:58:19.254Z,42.4615
2023-04-15T22:59:21.808Z,44.5385
2023-04-15T23:00:25.017Z,41.2308
2023-04-15T23:01:27.116Z,48.9231
2023-04-15T23:02:29.734Z,52.4615
2023-04-15T23:03:32.247Z,75.5385
2023-04-15T23:04:35.876Z,70.2308
2023-04-15T23:05:37.340Z,95.9231
2023-04-15T23:06:39.891Z,105.6923
2023-04-15T23:07:42.494Z,71.4615
2023-04-15T23:08:45.052Z,93.4615
2023-04-15T23:09:47.605Z,140.6154
2023-04-15T23:10:50.207Z,98.3846
2023-04-15T23:11:52.770Z,84.1538
2023-04-15T23:12:55.375Z,103.9231
2023-04-15T23:13:57.918Z,99.4615
2023-04-15T23:15:00.537Z,94.9231
2023-04-15T23:16:03.107Z,99.9231
2023-04-15T23:17:05.873Z,107.1538
2023-04-15T23:18:08.315Z,114.6154
2023-04-15T23:19:11.090Z,118.6923
2023-04-15T23:20:13.409Z,131.6923
2023-04-15T23:21:16.022Z,131.0000
2023-04-15T23:22:18.576Z,135.1538
2023-04-15T23:23:21.182Z,143.4615
2023-04-15T23:24:23.725Z,144.3077
2023-04-15T23:25:26.376Z,148.6154
2023-04-15T23:26:28.890Z,149.4615
2023-04-15T23:27:31.491Z,144.0769
2023-04-15T23:28:34.043Z,148.5385
2023-04-15T23:29:36.649Z,146.4615
2023-04-15T23:30:39.203Z,143.3077
2023-04-15T23:31:41.909Z,142.9231
2023-04-15T23:32:44.422Z,149.3077
2023-04-15T23:33:46.980Z,147.5385
2023-04-15T23:34:49.525Z,145.7692
2023-04-15T23:35:52.143Z,166.5385
2023-04-15T23:36:54.686Z,165.2308
2023-04-15T23:37:57.557Z,155.4615
2023-04-15T23:38:59.858Z,165.6154
2023-04-15T23:40:02.462Z,172.1538
2023-04-15T23:41:05.017Z,173.4615
2023-04-15T23:42:07.618Z,190.8462
2023-04-15T23:43:10.169Z,189.5385
2023-04-15T23:44:12.774Z,197.3077
2023-04-15T23:45:15.323Z,202.3846
2023-04-15T23:46:17.970Z,207.6154
2023-04-15T23:47:20.493Z,209.3077
2023-04-15T23:48:23.650Z,211.3077
2023-04-15T23:49:25.652Z,218.0000
2023-04-15T23:50:28.276Z,215.4615
2023-04-15T23:51:30.815Z,214.7692
2023-04-15T23:52:33.413Z,206.4615
2023-04-15T23:53:35.967Z,209.7692
2023-04-15T23:54:38.552Z,207.1538
2023-04-15T23:55:41.163Z,209.2308
2023-04-15T23:56:43.726Z,209.1538
2023-04-15T23:57:46.397Z,211.0000
2023-04-15T23:58:49.089Z,213.6923
2023-04-15T23:59:51.493Z,216.1538
